createdAt,value
2018-05-21T00:01:15.342Z,17.90
2018-05-21T00:03:43.463Z,17.90
2018-05-21T00:06:09.860Z,17.90
2018-05-21T00:08:36.299Z,17.80
2018-05-21T00:11:02.631Z,17.80
2018-05-21T00:13:28.969Z,17.80
2018-05-21T00:15:55.983Z,17.80
2018-05-21T00:18:22.305Z,17.80
2018-05-21T00:20:48.595Z,17.70
2018-05-21T00:23:15.013Z,17.70
2018-05-21T00:25:41.414Z,17.70
2018-05-21T00:28:08.485Z,17.70
2018-05-21T00:30:34.846Z,17.70
2018-05-21T00:33:01.165Z,17.70
2018-05-21T00:35:27.569Z,17.70
2018-05-21T00:37:54.776Z,17.60
2018-05-21T00:40:21.103Z,17.60
2018-05-21T00:42:47.514Z,17.60
2018-05-21T00:45:13.839Z,17.60
2018-05-21T00:47:40.826Z,17.50
2018-05-21T00:50:07.143Z,17.50
2018-05-21T00:52:33.454Z,17.50
2018-05-21T00:54:59.753Z,17.50
2018-05-21T00:57:26.210Z,17.50
2018-05-21T00:59:52.587Z,17.40
2018-05-21T01:02:18.848Z,17.40
2018-05-21T01:04:46.089Z,17.40
2018-05-21T01:07:12.361Z,17.40
2018-05-21T01:09:39.394Z,17.40
2018-05-21T01:12:06.423Z,17.30
2018-05-21T01:14:33.452Z,17.30
2018-05-21T01:16:59.767Z,17.30
2018-05-21T01:19:26.083Z,17.30
2018-05-21T01:21:52.397Z,17.30
2018-05-21T01:24:19.437Z,17.20
2018-05-21T01:26:45.774Z,17.20
2018-05-21T01:29:12.239Z,17.20
2018-05-21T01:31:39.181Z,17.20
2018-05-21T01:34:05.620Z,17.20
2018-05-21T01:36:31.973Z,17.20
2018-05-21T01:38:58.761Z,17.10
2018-05-21T01:41:25.109Z,17.10
2018-05-21T01:43:51.454Z,17.10
2018-05-21T01:46:17.909Z,17.10
2018-05-21T01:48:44.256Z,17.00
2018-05-21T01:51:11.105Z,17.00
2018-05-21T01:53:38.271Z,16.90
2018-05-21T01:56:04.733Z,16.90
2018-05-21T01:58:33.482Z,16.90
2018-05-21T02:01:00.179Z,16.90
2018-05-21T02:03:26.555Z,16.90
2018-05-21T02:05:55.627Z,16.90
2018-05-21T02:08:23.342Z,16.80
2018-05-21T02:10:50.989Z,16.80
2018-05-21T02:13:17.306Z,16.80
2018-05-21T02:15:43.719Z,16.80
2018-05-21T02:18:10.080Z,16.80
2018-05-21T02:20:38.034Z,16.70
2018-05-21T02:23:04.449Z,16.70
2018-05-21T02:25:31.502Z,16.70
2018-05-21T02:27:57.941Z,16.60
2018-05-21T02:30:24.249Z,16.60
2018-05-21T02:32:51.371Z,16.60
2018-05-21T02:35:17.706Z,16.60
2018-05-21T02:37:43.995Z,16.60
2018-05-21T02:40:10.385Z,16.60
2018-05-21T02:42:36.784Z,16.50
2018-05-21T02:45:03.187Z,16.50
2018-05-21T02:47:29.503Z,16.50
2018-05-21T02:49:56.726Z,16.40
2018-05-21T02:52:23.856Z,16.40
2018-05-21T02:54:50.362Z,16.40
2018-05-21T02:57:16.730Z,16.40
2018-05-21T02:59:43.036Z,16.40
2018-05-21T03:02:09.328Z,16.30
2018-05-21T03:04:35.671Z,16.30
2018-05-21T03:07:02.736Z,16.30
2018-05-21T03:09:29.898Z,16.20
2018-05-21T03:11:56.218Z,16.20
2018-05-21T03:14:22.553Z,16.20
2018-05-21T03:16:49.613Z,16.20
2018-05-21T03:19:16.867Z,16.20
2018-05-21T03:21:44.437Z,16.10
2018-05-21T03:24:10.841Z,16.20
2018-05-21T03:26:38.613Z,16.10
2018-05-21T03:29:04.947Z,16.10
2018-05-21T03:31:32.317Z,16.10
2018-05-21T03:33:58.829Z,16.10
2018-05-21T03:36:26.532Z,16.00
2018-05-21T03:38:52.969Z,16.00
2018-05-21T03:41:19.311Z,16.00
2018-05-21T03:43:45.785Z,16.00
2018-05-21T03:46:14.173Z,15.90
2018-05-21T03:48:41.272Z,15.90
2018-05-21T03:51:08.362Z,15.90
2018-05-21T03:53:34.622Z,15.90
2018-05-21T03:56:00.963Z,15.90
2018-05-21T03:58:27.372Z,15.90
2018-05-21T04:00:54.413Z,15.80
2018-05-21T04:03:20.769Z,15.80
2018-05-21T04:05:47.066Z,15.80
2018-05-21T04:08:13.464Z,15.80
2018-05-21T04:10:39.975Z,15.80
2018-05-21T04:13:06.313Z,15.80
2018-05-21T04:15:32.601Z,15.80
2018-05-21T04:17:58.970Z,15.80
2018-05-21T04:20:26.041Z,15.70
2018-05-21T04:22:53.375Z,15.70
2018-05-21T04:25:19.864Z,15.70
2018-05-21T04:27:46.145Z,15.70
2018-05-21T04:30:13.698Z,15.70
2018-05-21T04:32:40.149Z,15.70
2018-05-21T04:35:06.533Z,15.70
2018-05-21T04:37:32.862Z,15.70
2018-05-21T04:40:00.011Z,15.70
2018-05-21T04:42:27.082Z,15.60
2018-05-21T04:44:53.416Z,15.60
2018-05-21T04:47:20.590Z,15.60
2018-05-21T04:49:47.320Z,15.60
2018-05-21T04:52:14.488Z,15.60
2018-05-21T04:54:40.855Z,15.60
2018-05-21T04:57:07.315Z,15.60
2018-05-21T04:59:34.494Z,15.60
2018-05-21T05:02:00.906Z,15.60
2018-05-21T05:04:27.255Z,15.60
2018-05-21T05:06:54.339Z,15.60
2018-05-21T05:09:20.672Z,15.60
2018-05-21T05:11:47.052Z,15.60
2018-05-21T05:14:14.125Z,15.60
2018-05-21T05:16:41.768Z,15.60
2018-05-21T05:19:08.851Z,15.60
2018-05-21T05:21:36.013Z,15.60
2018-05-21T05:24:02.861Z,15.50
2018-05-21T05:26:29.187Z,15.50
2018-05-21T05:28:55.495Z,15.60
2018-05-21T05:31:21.827Z,15.50
2018-05-21T05:33:48.900Z,15.50
2018-05-21T05:36:15.447Z,15.50
2018-05-21T05:38:42.613Z,15.50
2018-05-21T05:41:09.105Z,15.50
2018-05-21T05:43:35.430Z,15.50
2018-05-21T05:46:02.599Z,15.50
2018-05-21T05:48:29.024Z,15.50
2018-05-21T05:50:56.156Z,15.50
2018-05-21T05:53:22.518Z,15.50
2018-05-21T05:55:48.859Z,15.50
2018-05-21T05:58:15.409Z,15.60
2018-05-21T06:00:42.748Z,15.60
2018-05-21T06:03:09.094Z,15.60
2018-05-21T06:05:35.598Z,15.60
2018-05-21T06:08:01.946Z,15.60
2018-05-21T06:10:28.387Z,15.60
2018-05-21T06:12:55.411Z,15.60
2018-05-21T06:15:23.282Z,15.60
2018-05-21T06:17:50.397Z,15.60
2018-05-21T06:20:16.740Z,15.60
2018-05-21T06:22:43.198Z,15.60
2018-05-21T06:25:09.774Z,15.60
2018-05-21T06:27:36.320Z,15.60
2018-05-21T06:30:02.746Z,15.60
2018-05-21T06:32:29.168Z,15.60
2018-05-21T06:34:55.542Z,15.60
2018-05-21T06:37:22.756Z,15.60
2018-05-21T06:39:49.122Z,15.60
2018-05-21T06:42:15.452Z,15.70
2018-05-21T06:44:43.452Z,15.70
2018-05-21T06:47:09.850Z,15.70
2018-05-21T06:49:41.588Z,15.70
2018-05-21T06:52:07.972Z,15.70
2018-05-21T06:54:34.467Z,15.70
2018-05-21T06:57:00.958Z,15.70
2018-05-21T06:59:27.436Z,15.70
2018-05-21T07:04:37.119Z,15.80
2018-05-21T07:07:04.765Z,15.80
2018-05-21T07:09:32.230Z,15.80
2018-05-21T07:17:23.955Z,15.80
2018-05-21T07:19:50.385Z,15.80
2018-05-21T07:22:16.781Z,15.80
2018-05-21T07:24:43.173Z,15.80
2018-05-21T07:27:09.499Z,15.80
2018-05-21T07:29:36.039Z,15.90
2018-05-21T07:32:02.418Z,15.90
2018-05-21T07:34:29.579Z,15.90
2018-05-21T07:36:56.027Z,15.90
2018-05-21T07:39:22.454Z,15.90
2018-05-21T07:41:49.565Z,15.90
2018-05-21T07:44:15.965Z,15.90
2018-05-21T07:46:42.301Z,16.00
2018-05-21T07:49:08.756Z,16.00
2018-05-21T07:51:35.173Z,16.00
2018-05-21T07:54:01.536Z,16.00
2018-05-21T07:56:27.952Z,16.00
2018-05-21T07:58:54.329Z,16.00
2018-05-21T08:01:20.787Z,16.10
2018-05-21T08:03:47.271Z,16.10
2018-05-21T08:06:13.691Z,16.10
2018-05-21T08:08:40.021Z,16.10
2018-05-21T08:11:06.367Z,16.10
2018-05-21T08:13:32.817Z,16.20
2018-05-21T08:15:59.201Z,16.20
2018-05-21T08:18:26.337Z,16.30
2018-05-21T08:20:53.407Z,16.30
2018-05-21T08:23:20.460Z,16.30
2018-05-21T08:25:47.542Z,16.30
2018-05-21T08:28:14.774Z,16.40
2018-05-21T08:30:41.153Z,16.40
2018-05-21T08:33:07.529Z,16.40
2018-05-21T08:35:34.591Z,16.50
2018-05-21T08:38:01.868Z,16.50
2018-05-21T08:40:28.225Z,16.50
2018-05-21T08:42:54.526Z,16.50
2018-05-21T08:45:20.998Z,16.50
2018-05-21T08:47:47.349Z,16.60
2018-05-21T08:50:13.748Z,16.60
2018-05-21T08:52:40.240Z,16.60
2018-05-21T08:55:06.737Z,16.60
2018-05-21T08:57:33.249Z,16.70
2018-05-21T08:59:59.649Z,16.70
2018-05-21T09:02:26.951Z,16.80
2018-05-21T09:04:53.302Z,16.80
2018-05-21T09:07:19.734Z,16.80
2018-05-21T09:09:46.926Z,16.90
2018-05-21T09:12:13.617Z,16.90
2018-05-21T09:14:40.050Z,16.90
2018-05-21T09:17:08.251Z,17.00
2018-05-21T09:19:35.120Z,17.00
2018-05-21T09:22:01.577Z,17.00
2018-05-21T09:24:28.047Z,17.10
2018-05-21T09:26:55.268Z,17.10
2018-05-21T09:29:21.584Z,17.10
2018-05-21T09:31:48.855Z,17.10
2018-05-21T09:34:15.210Z,17.20
2018-05-21T09:36:41.677Z,17.20
2018-05-21T09:39:08.804Z,17.30
2018-05-21T09:41:35.924Z,17.20
2018-05-21T09:44:03.044Z,17.20
2018-05-21T09:46:30.125Z,17.30
2018-05-21T09:49:02.491Z,17.30
2018-05-21T09:51:31.190Z,17.40
2018-05-21T09:53:58.556Z,17.40
2018-05-21T09:56:29.728Z,17.40
2018-05-21T09:58:58.598Z,17.40
2018-05-21T10:04:05.607Z,17.50
2018-05-21T10:06:32.009Z,17.50
2018-05-21T10:11:34.635Z,17.50
2018-05-21T10:14:10.071Z,17.60
2018-05-21T10:16:39.097Z,17.60
2018-05-21T10:19:05.591Z,17.70
2018-05-21T10:21:31.961Z,17.70
2018-05-21T10:26:52.765Z,17.80
2018-05-21T10:29:29.845Z,17.80
2018-05-21T10:31:58.158Z,17.80
2018-05-21T10:34:25.352Z,17.90
2018-05-21T10:36:52.542Z,18.00
2018-05-21T10:39:18.935Z,17.90
2018-05-21T10:41:45.908Z,18.00
2018-05-21T10:44:16.144Z,18.10
2018-05-21T10:46:53.384Z,18.10
2018-05-21T10:49:23.199Z,18.20
2018-05-21T10:51:50.755Z,18.20
2018-05-21T10:54:24.494Z,18.20
2018-05-21T10:56:52.670Z,18.20
2018-05-21T10:59:19.218Z,18.30
2018-05-21T11:01:45.908Z,18.30
2018-05-21T11:04:13.110Z,18.50
2018-05-21T11:06:39.484Z,18.50
2018-05-21T11:09:05.854Z,18.50
2018-05-21T11:11:32.399Z,18.60
2018-05-21T11:13:59.619Z,18.70
2018-05-21T11:16:27.026Z,18.70
2018-05-21T11:18:53.450Z,18.80
2018-05-21T11:21:20.504Z,18.80
2018-05-21T11:26:20.848Z,18.90
2018-05-21T11:28:54.453Z,19.00
2018-05-21T11:31:22.192Z,19.10
2018-05-21T11:33:50.284Z,19.10
2018-05-21T11:41:44.063Z,19.30
2018-05-21T11:44:18.715Z,19.40
2018-05-21T11:46:49.880Z,19.40
2018-05-21T11:49:16.411Z,19.40
2018-05-21T11:51:43.611Z,19.50
2018-05-21T11:54:10.579Z,19.50
2018-05-21T11:56:37.621Z,19.70
2018-05-21T12:01:49.236Z,19.70
2018-05-21T12:04:15.787Z,19.80
2018-05-21T12:06:42.234Z,19.80
2018-05-21T12:09:10.331Z,20.00
2018-05-21T12:11:37.106Z,19.90
2018-05-21T12:14:05.010Z,20.10
2018-05-21T12:16:31.511Z,20.00
2018-05-21T12:21:40.382Z,20.20
2018-05-21T12:24:06.915Z,20.30
2018-05-21T12:26:34.487Z,20.40
2018-05-21T12:29:00.974Z,20.30
2018-05-21T12:31:28.202Z,20.50
2018-05-21T12:33:54.711Z,20.50
2018-05-21T12:36:21.111Z,20.50
2018-05-21T12:38:48.305Z,20.60
2018-05-21T12:41:14.846Z,20.70
2018-05-21T12:43:41.572Z,20.70
2018-05-21T12:46:10.997Z,20.80
2018-05-21T12:48:37.418Z,20.80
2018-05-21T12:51:03.852Z,20.90
2018-05-21T12:53:30.217Z,20.90
2018-05-21T12:55:56.588Z,21.00
2018-05-21T12:58:25.623Z,21.10
2018-05-21T13:00:52.162Z,21.10
2018-05-21T13:03:20.216Z,21.20
2018-05-21T13:05:49.733Z,21.20
2018-05-21T13:08:18.462Z,21.30
2018-05-21T13:10:54.411Z,21.40
2018-05-21T13:13:20.904Z,21.40
2018-05-21T13:15:47.277Z,21.50
2018-05-21T13:18:13.617Z,21.50
2018-05-21T13:20:39.998Z,21.60
2018-05-21T13:23:07.921Z,21.60
2018-05-21T13:25:34.368Z,21.70
2018-05-21T13:28:02.731Z,21.80
2018-05-21T13:30:29.886Z,21.70
2018-05-21T13:32:58.588Z,21.80
2018-05-21T13:35:25.899Z,21.90
2018-05-21T13:37:52.220Z,21.90
2018-05-21T13:40:18.697Z,22.00
2018-05-21T13:42:45.063Z,22.00
2018-05-21T13:45:13.342Z,22.10
2018-05-21T13:47:47.670Z,22.10
2018-05-21T13:50:14.935Z,22.20
2018-05-21T13:52:41.342Z,22.30
2018-05-21T13:55:08.108Z,22.30
2018-05-21T13:57:34.568Z,22.30
2018-05-21T14:00:01.063Z,22.40
2018-05-21T14:02:27.442Z,22.40
2018-05-21T14:04:55.668Z,22.50
2018-05-21T14:07:22.229Z,22.50
2018-05-21T14:09:48.634Z,22.60
2018-05-21T14:12:15.133Z,22.60
2018-05-21T14:14:42.335Z,22.70
2018-05-21T14:17:08.995Z,22.70
2018-05-21T14:19:35.583Z,22.80
2018-05-21T14:22:02.005Z,22.80
2018-05-21T14:24:28.455Z,22.80
2018-05-21T14:26:54.810Z,22.90
2018-05-21T14:29:21.284Z,22.90
2018-05-21T14:31:47.767Z,23.00
2018-05-21T14:34:14.237Z,23.00
2018-05-21T14:36:47.614Z,23.10
2018-05-21T14:39:15.215Z,23.10
2018-05-21T14:41:45.847Z,23.20
2018-05-21T14:44:13.586Z,23.20
2018-05-21T14:46:40.044Z,23.20
2018-05-21T14:49:09.272Z,23.30
2018-05-21T14:51:36.829Z,23.30
2018-05-21T14:54:05.177Z,23.30
2018-05-21T14:56:31.782Z,23.40
2018-05-21T14:58:58.232Z,23.40
2018-05-21T15:01:31.026Z,23.50
2018-05-21T15:03:58.996Z,23.60
2018-05-21T15:06:25.336Z,23.50
2018-05-21T15:08:51.815Z,23.60
2018-05-21T15:11:18.469Z,23.60
2018-05-21T15:13:45.651Z,23.70
2018-05-21T15:16:12.093Z,23.70
2018-05-21T15:18:38.648Z,23.80
2018-05-21T15:23:46.603Z,23.80
2018-05-21T15:26:13.347Z,23.90
2018-05-21T15:28:40.158Z,23.90
2018-05-21T15:31:06.630Z,23.90
2018-05-21T15:33:33.231Z,24.00
2018-05-21T15:35:59.829Z,24.00
2018-05-21T15:41:09.117Z,24.10
2018-05-21T15:43:44.475Z,24.10
2018-05-21T15:46:19.894Z,24.20
2018-05-21T15:48:50.726Z,24.20
2018-05-21T15:51:22.356Z,24.20
2018-05-21T15:53:48.843Z,24.30
2018-05-21T15:56:20.249Z,24.30
2018-05-21T15:58:48.425Z,24.40
2018-05-21T16:01:21.280Z,24.40
2018-05-21T16:03:49.436Z,24.40
2018-05-21T16:06:16.159Z,24.50
2018-05-21T16:08:46.758Z,24.50
2018-05-21T16:11:15.709Z,24.60
2018-05-21T16:13:43.979Z,24.60
2018-05-21T16:18:43.456Z,24.70
2018-05-21T16:21:14.876Z,24.70
2018-05-21T16:23:42.276Z,24.80
2018-05-21T16:28:57.827Z,24.80
2018-05-21T16:31:27.647Z,24.90
2018-05-21T16:33:55.271Z,24.90
2018-05-21T16:36:21.821Z,25.00
2018-05-21T16:38:48.578Z,25.00
2018-05-21T16:41:15.084Z,25.00
2018-05-21T16:43:44.924Z,25.10
2018-05-21T16:46:13.752Z,25.10
2018-05-21T16:48:40.404Z,25.10
2018-05-21T16:51:07.998Z,25.20
2018-05-21T16:53:34.739Z,25.20
2018-05-21T16:56:04.743Z,25.20
2018-05-21T16:58:32.848Z,25.20
2018-05-21T17:00:59.227Z,25.30
2018-05-21T17:03:26.343Z,25.30
2018-05-21T17:05:58.452Z,25.30
2018-05-21T17:08:26.289Z,25.40
2018-05-21T17:11:07.549Z,25.40
2018-05-21T17:13:33.938Z,25.40
2018-05-21T17:16:00.329Z,25.40
2018-05-21T17:18:28.480Z,25.50
2018-05-21T17:20:54.837Z,25.40
2018-05-21T17:23:21.339Z,25.50
2018-05-21T17:25:47.842Z,25.50
2018-05-21T17:28:14.326Z,25.50
2018-05-21T17:30:40.785Z,25.50
2018-05-21T17:33:07.438Z,25.50
2018-05-21T17:35:34.092Z,25.50
2018-05-21T17:38:00.429Z,25.50
2018-05-21T17:40:27.534Z,25.50
2018-05-21T17:42:54.710Z,25.50
2018-05-21T17:45:21.129Z,25.50
2018-05-21T17:47:47.654Z,25.50
2018-05-21T17:50:13.994Z,25.50
2018-05-21T17:52:41.167Z,25.40
2018-05-21T17:55:08.314Z,25.40
2018-05-21T17:57:35.513Z,25.40
2018-05-21T18:00:01.965Z,25.40
2018-05-21T18:02:28.359Z,25.30
2018-05-21T18:04:54.834Z,25.30
2018-05-21T18:07:21.306Z,25.30
2018-05-21T18:09:48.490Z,25.20
2018-05-21T18:12:14.869Z,25.20
2018-05-21T18:14:41.317Z,25.20
2018-05-21T18:17:07.635Z,25.20
2018-05-21T18:19:35.289Z,25.20
2018-05-21T18:22:02.528Z,25.10
2018-05-21T18:24:28.964Z,25.00
2018-05-21T18:26:55.388Z,25.10
2018-05-21T18:29:22.790Z,25.10
2018-05-21T18:31:54.933Z,25.00
2018-05-21T18:34:21.334Z,25.00
2018-05-21T18:39:21.479Z,24.90
2018-05-21T18:41:48.749Z,24.90
2018-05-21T18:44:16.016Z,24.80
2018-05-21T18:46:56.825Z,24.80
2018-05-21T18:49:35.296Z,24.80
2018-05-21T18:52:01.784Z,24.80
2018-05-21T18:54:28.269Z,24.70
2018-05-21T18:56:55.621Z,24.70
2018-05-21T18:59:26.080Z,24.70
2018-05-21T19:01:57.985Z,24.60
2018-05-21T19:04:25.604Z,24.50
2018-05-21T19:06:52.046Z,24.50
2018-05-21T19:09:18.533Z,24.50
2018-05-21T19:11:45.646Z,24.40
2018-05-21T19:14:12.091Z,24.40
2018-05-21T19:16:39.205Z,24.30
2018-05-21T19:19:07.135Z,24.30
2018-05-21T19:21:33.719Z,24.20
2018-05-21T19:24:00.426Z,24.20
2018-05-21T19:26:28.312Z,24.10
2018-05-21T19:28:55.209Z,24.10
2018-05-21T19:31:21.690Z,24.10
2018-05-21T19:33:48.068Z,24.10
2018-05-21T19:36:15.525Z,23.90
2018-05-21T19:38:42.714Z,23.90
2018-05-21T19:41:10.709Z,23.90
2018-05-21T19:43:37.651Z,23.80
2018-05-21T19:46:04.026Z,23.80
2018-05-21T19:48:31.227Z,23.70
2018-05-21T19:50:57.837Z,23.70
2018-05-21T19:53:24.295Z,23.70
2018-05-21T19:55:50.722Z,23.60
2018-05-21T19:58:17.208Z,23.60
2018-05-21T20:00:43.607Z,23.50
2018-05-21T20:03:10.796Z,23.40
2018-05-21T20:05:38.760Z,23.40
2018-05-21T20:08:06.532Z,23.30
2018-05-21T20:10:34.606Z,23.30
2018-05-21T20:13:01.933Z,23.30
2018-05-21T20:15:29.426Z,23.20
2018-05-21T20:17:57.736Z,23.10
2018-05-21T20:20:25.566Z,23.10
2018-05-21T20:22:54.969Z,23.00
2018-05-21T20:25:21.998Z,23.00
2018-05-21T20:27:48.588Z,22.90
2018-05-21T20:30:15.028Z,22.90
2018-05-21T20:32:42.905Z,22.80
2018-05-21T20:35:09.290Z,22.80
2018-05-21T20:37:35.640Z,22.80
2018-05-21T20:40:02.587Z,22.80
2018-05-21T20:42:28.988Z,22.70
2018-05-21T20:44:55.577Z,22.70
2018-05-21T20:47:22.099Z,22.60
2018-05-21T20:49:48.809Z,22.60
2018-05-21T20:52:15.153Z,22.50
2018-05-21T20:54:41.481Z,22.50
2018-05-21T20:57:07.961Z,22.50
2018-05-21T20:59:34.322Z,22.40
2018-05-21T21:02:01.596Z,22.30
2018-05-21T21:04:28.980Z,22.30
2018-05-21T21:06:55.297Z,22.30
2018-05-21T21:09:21.676Z,22.30
2018-05-21T21:11:48.041Z,22.20
2018-05-21T21:14:14.454Z,22.20
2018-05-21T21:16:40.806Z,22.10
2018-05-21T21:19:07.119Z,22.10
2018-05-21T21:21:33.432Z,22.10
2018-05-21T21:23:59.873Z,22.00
2018-05-21T21:26:26.191Z,22.00
2018-05-21T21:28:52.588Z,21.90
2018-05-21T21:31:18.933Z,21.90
2018-05-21T21:33:46.020Z,21.80
2018-05-21T21:36:12.286Z,21.80
2018-05-21T21:38:39.429Z,21.80
2018-05-21T21:41:06.457Z,21.70
2018-05-21T21:43:33.009Z,21.70
2018-05-21T21:45:59.580Z,21.70
2018-05-21T21:48:26.214Z,21.60
2018-05-21T21:50:52.531Z,21.60
2018-05-21T21:53:19.738Z,21.50
2018-05-21T21:55:46.801Z,21.50
2018-05-21T21:58:13.125Z,21.50
2018-05-21T22:00:39.576Z,21.50
2018-05-21T22:03:05.974Z,21.40
2018-05-21T22:05:32.394Z,21.40
2018-05-21T22:07:58.764Z,21.40
2018-05-21T22:10:25.171Z,21.30
2018-05-21T22:12:51.555Z,21.30
2018-05-21T22:15:17.880Z,21.30
2018-05-21T22:17:45.466Z,21.20
2018-05-21T22:20:11.837Z,21.20
2018-05-21T22:22:38.240Z,21.10
2018-05-21T22:25:04.688Z,21.10
2018-05-21T22:27:37.145Z,21.10
2018-05-21T22:30:04.200Z,21.00
2018-05-21T22:32:30.508Z,21.00
2018-05-21T22:34:56.987Z,21.00
2018-05-21T22:37:23.377Z,20.90
2018-05-21T22:39:50.589Z,20.90
2018-05-21T22:42:17.003Z,20.90
2018-05-21T22:44:44.157Z,20.80
2018-05-21T22:47:10.546Z,20.80
2018-05-21T22:49:36.909Z,20.80
2018-05-21T22:52:03.297Z,20.80
2018-05-21T22:54:29.651Z,20.70
2018-05-21T22:56:56.549Z,20.70
2018-05-21T22:59:22.848Z,20.70
2018-05-21T23:01:50.129Z,20.60
2018-05-21T23:04:16.391Z,20.60
2018-05-21T23:06:42.743Z,20.60
2018-05-21T23:09:09.723Z,20.50
2018-05-21T23:11:36.750Z,20.50
2018-05-21T23:14:04.205Z,20.50
2018-05-21T23:16:30.521Z,20.50
2018-05-21T23:18:57.591Z,20.40
2018-05-21T23:21:24.047Z,20.40
2018-05-21T23:23:51.139Z,20.30
2018-05-21T23:26:17.492Z,20.30
2018-05-21T23:28:44.551Z,20.30
2018-05-21T23:31:10.937Z,20.30
2018-05-21T23:33:37.242Z,20.20
2018-05-21T23:36:04.357Z,20.20
2018-05-21T23:38:30.843Z,20.20
2018-05-21T23:40:57.872Z,20.20
2018-05-21T23:43:24.213Z,20.10
2018-05-21T23:45:51.243Z,20.10
2018-05-21T23:48:17.609Z,20.10
2018-05-21T23:50:44.047Z,20.00
2018-05-21T23:53:10.363Z,20.00
2018-05-21T23:55:36.700Z,20.00
2018-05-21T23:58:03.034Z,19.90
